sensor_id;sensor_type;location;lat;lon;timestamp;pressure;altitude;pressure_sealevel;temperature;humidity
59055;BME280;44845;51.444;7.460;2023-05-10T00:00:15;98942.53;;;14.21;84.42
59055;BME280;44845;51.444;7.460;2023-05-10T00:02:40;98941.72;;;14.19;84.30
59055;BME280;44845;51.444;7.460;2023-05-10T00:05:06;98944.94;;;14.03;84.92
59055;BME280;44845;51.444;7.460;2023-05-10T00:07:31;98942.06;;;14.10;84.77
59055;BME280;44845;51.444;7.460;2023-05-10T00:09:57;98940.81;;;14.20;84.31
59055;BME280;44845;51.444;7.460;2023-05-10T00:12:22;98934.41;;;14.03;84.78
59055;BME280;44845;51.444;7.460;2023-05-10T00:14:47;98944.81;;;14.06;84.92
59055;BME280;44845;51.444;7.460;2023-05-10T00:17:13;98936.97;;;14.05;84.83
59055;BME280;44845;51.444;7.460;2023-05-10T00:19:39;98942.31;;;14.03;84.73
59055;BME280;44845;51.444;7.460;2023-05-10T00:22:04;98945.94;;;14.01;84.83
59055;BME280;44845;51.444;7.460;2023-05-10T00:24:30;98943.13;;;14.05;84.77
59055;BME280;44845;51.444;7.460;2023-05-10T00:26:55;98939.69;;;14.03;84.68
59055;BME280;44845;51.444;7.460;2023-05-10T00:29:20;98943.22;;;14.02;84.49
59055;BME280;44845;51.444;7.460;2023-05-10T00:31:46;98939.69;;;14.03;84.36
59055;BME280;44845;51.444;7.460;2023-05-10T00:34:11;98936.81;;;14.10;84.46
59055;BME280;44845;51.444;7.460;2023-05-10T00:36:36;98946.09;;;13.96;84.64
59055;BME280;44845;51.444;7.460;2023-05-10T00:39:02;98940.13;;;13.91;85.01
59055;BME280;44845;51.444;7.460;2023-05-10T00:41:28;98934.63;;;13.97;84.90
59055;BME280;44845;51.444;7.460;2023-05-10T00:43:54;98942.59;;;13.95;84.96
59055;BME280;44845;51.444;7.460;2023-05-10T00:46:20;98939.72;;;14.02;84.17
59055;BME280;44845;51.444;7.460;2023-05-10T00:48:45;98937.25;;;13.97;84.87
59055;BME280;44845;51.444;7.460;2023-05-10T00:51:11;98943.47;;;13.96;84.86
59055;BME280;44845;51.444;7.460;2023-05-10T00:53:36;98942.59;;;13.95;85.06
59055;BME280;44845;51.444;7.460;2023-05-10T00:56:01;98940.84;;;13.94;84.84
59055;BME280;44845;51.444;7.460;2023-05-10T00:58:28;98945.16;;;13.97;84.87
59055;BME280;44845;51.444;7.460;2023-05-10T01:00:55;98943.13;;;14.05;84.93
59055;BME280;44845;51.444;7.460;2023-05-10T01:03:22;98938.81;;;14.03;84.28
59055;BME280;44845;51.444;7.460;2023-05-10T01:05:47;98945.25;;;13.94;84.48
59055;BME280;44845;51.444;7.460;2023-05-10T01:08:12;98943.47;;;13.96;84.64
59055;BME280;44845;51.444;7.460;2023-05-10T01:10:38;98947.00;;;13.95;84.74
59055;BME280;44845;51.444;7.460;2023-05-10T01:13:03;98944.13;;;14.01;84.37
59055;BME280;44845;51.444;7.460;2023-05-10T01:15:29;98939.69;;;14.03;84.53
59055;BME280;44845;51.444;7.460;2023-05-10T01:17:56;98944.03;;;14.04;84.37
59055;BME280;44845;51.444;7.460;2023-05-10T01:20:21;98946.09;;;13.96;84.67
59055;BME280;44845;51.444;7.460;2023-05-10T01:28:24;98943.56;;;13.93;85.04
59055;BME280;44845;51.444;7.460;2023-05-10T01:36:23;98952.47;;;13.89;85.19
59055;BME280;44845;51.444;7.460;2023-05-10T01:39:01;98958.50;;;13.92;85.12
59055;BME280;44845;51.444;7.460;2023-05-10T01:44:08;98954.09;;;13.93;85.07
59055;BME280;44845;51.444;7.460;2023-05-10T01:46:37;98958.63;;;13.89;85.16
59055;BME280;44845;51.444;7.460;2023-05-10T01:49:11;98957.81;;;13.87;85.28
59055;BME280;44845;51.444;7.460;2023-05-10T01:51:45;98962.72;;;13.98;85.12
59055;BME280;44845;51.444;7.460;2023-05-10T01:54:13;98964.84;;;13.87;84.91
59055;BME280;44845;51.444;7.460;2023-05-10T01:56:43;98964.41;;;13.99;84.46
59055;BME280;44845;51.444;7.460;2023-05-10T01:59:13;98959.47;;;13.90;84.95
59055;BME280;44845;51.444;7.460;2023-05-10T02:01:41;98964.97;;;13.83;84.64
59055;BME280;44845;51.444;7.460;2023-05-10T02:04:09;98966.69;;;13.84;85.07
59055;BME280;44845;51.444;7.460;2023-05-10T02:06:35;98954.66;;;13.77;85.16
59055;BME280;44845;51.444;7.460;2023-05-10T02:09:03;98960.00;;;13.74;85.33
59055;BME280;44845;51.444;7.460;2023-05-10T02:11:29;98959.00;;;13.78;85.32
59055;BME280;44845;51.444;7.460;2023-05-10T02:13:57;98961.84;;;13.72;85.31
59055;BME280;44845;51.444;7.460;2023-05-10T02:16:24;98970.69;;;13.71;85.48
59055;BME280;44845;51.444;7.460;2023-05-10T02:18:52;98973.88;;;13.79;85.54
59055;BME280;44845;51.444;7.460;2023-05-10T02:21:19;98968.41;;;13.85;85.13
59055;BME280;44845;51.444;7.460;2023-05-10T02:23:46;98972.13;;;13.80;85.17
59055;BME280;44845;51.444;7.460;2023-05-10T02:26:14;98978.00;;;13.88;84.55
59055;BME280;44845;51.444;7.460;2023-05-10T02:28:42;98976.50;;;13.81;84.57
59055;BME280;44845;51.444;7.460;2023-05-10T02:31:08;98976.31;;;13.85;84.56
59055;BME280;44845;51.444;7.460;2023-05-10T02:33:38;98976.50;;;13.81;84.74
59055;BME280;44845;51.444;7.460;2023-05-10T02:36:04;98979.28;;;13.76;84.68
59055;BME280;44845;51.444;7.460;2023-05-10T02:38:31;98982.38;;;13.62;84.40
59055;BME280;44845;51.444;7.460;2023-05-10T02:40:59;98974.31;;;13.67;84.69
59055;BME280;44845;51.444;7.460;2023-05-10T02:43:25;98983.84;;;13.71;85.16
59055;BME280;44845;51.444;7.460;2023-05-10T02:45:51;98979.31;;;13.74;85.01
59055;BME280;44845;51.444;7.460;2023-05-10T02:48:16;98985.41;;;13.77;83.91
59055;BME280;44845;51.444;7.460;2023-05-10T02:50:45;98975.25;;;13.66;85.04
59055;BME280;44845;51.444;7.460;2023-05-10T02:53:20;98988.41;;;13.66;85.32
59055;BME280;44845;51.444;7.460;2023-05-10T02:55:51;98993.78;;;13.62;85.62
59055;BME280;44845;51.444;7.460;2023-05-10T02:58:17;98985.69;;;13.69;85.18
59055;BME280;44845;51.444;7.460;2023-05-10T03:00:44;98986.38;;;13.74;85.03
59055;BME280;44845;51.444;7.460;2023-05-10T03:03:11;98989.22;;;13.68;85.03
59055;BME280;44845;51.444;7.460;2023-05-10T03:05:36;98988.19;;;13.72;85.12
59055;BME280;44845;51.444;7.460;2023-05-10T03:08:02;98989.81;;;13.76;84.88
59055;BME280;44845;51.444;7.460;2023-05-10T03:10:30;98995.28;;;13.70;84.85
59055;BME280;44845;51.444;7.460;2023-05-10T03:13:13;98993.72;;;13.64;84.95
59055;BME280;44845;51.444;7.460;2023-05-10T03:18:35;98999.53;;;13.74;84.30
59055;BME280;44845;51.444;7.460;2023-05-10T03:21:04;98993.69;;;13.66;84.17
59055;BME280;44845;51.444;7.460;2023-05-10T03:23:44;98997.03;;;13.71;84.52
59055;BME280;44845;51.444;7.460;2023-05-10T03:26:17;99009.50;;;13.66;84.26
59055;BME280;44845;51.444;7.460;2023-05-10T03:28:43;99006.75;;;13.69;84.28
59055;BME280;44845;51.444;7.460;2023-05-10T03:31:09;99012.06;;;13.67;83.98
59055;BME280;44845;51.444;7.460;2023-05-10T03:33:34;99006.34;;;13.54;84.15
59055;BME280;44845;51.444;7.460;2023-05-10T03:36:00;99011.50;;;13.59;84.01
59055;BME280;44845;51.444;7.460;2023-05-10T03:38:25;99015.25;;;13.50;84.60
59055;BME280;44845;51.444;7.460;2023-05-10T03:40:51;99015.38;;;13.47;84.54
59055;BME280;44845;51.444;7.460;2023-05-10T03:43:16;99020.41;;;13.53;84.48
59055;BME280;44845;51.444;7.460;2023-05-10T03:45:41;99021.75;;;13.39;84.75
59055;BME280;44845;51.444;7.460;2023-05-10T03:48:07;99024.66;;;13.30;85.13
59055;BME280;44845;51.444;7.460;2023-05-10T03:50:32;99020.72;;;13.44;84.73
59055;BME280;44845;51.444;7.460;2023-05-10T03:52:57;99026.25;;;13.36;85.31
59055;BME280;44845;51.444;7.460;2023-05-10T03:55:23;99024.63;;;13.32;85.01
59055;BME280;44845;51.444;7.460;2023-05-10T03:57:48;99022.84;;;13.32;85.31
59055;BME280;44845;51.444;7.460;2023-05-10T04:00:14;99024.38;;;13.39;84.76
59055;BME280;44845;51.444;7.460;2023-05-10T04:02:40;99037.50;;;13.41;84.88
59055;BME280;44845;51.444;7.460;2023-05-10T04:05:05;99039.63;;;13.29;84.90
59055;BME280;44845;51.444;7.460;2023-05-10T04:07:31;99033.19;;;13.38;84.88
59055;BME280;44845;51.444;7.460;2023-05-10T04:09:56;99031.16;;;13.47;84.42
59055;BME280;44845;51.444;7.460;2023-05-10T04:12:22;99041.78;;;13.44;84.51
59055;BME280;44845;51.444;7.460;2023-05-10T04:14:47;99035.31;;;13.27;85.07
59055;BME280;44845;51.444;7.460;2023-05-10T04:17:13;99033.19;;;13.38;84.72
59055;BME280;44845;51.444;7.460;2023-05-10T04:19:38;99028.53;;;13.47;84.37
59055;BME280;44845;51.444;7.460;2023-05-10T04:22:03;99029.53;;;13.43;84.03
59055;BME280;44845;51.444;7.460;2023-05-10T04:24:29;99026.75;;;13.47;84.26
59055;BME280;44845;51.444;7.460;2023-05-10T04:26:54;99035.59;;;13.45;84.51
59055;BME280;44845;51.444;7.460;2023-05-10T04:29:20;99032.41;;;13.35;84.57
59055;BME280;44845;51.444;7.460;2023-05-10T04:31:45;99033.94;;;13.42;84.72
59055;BME280;44845;51.444;7.460;2023-05-10T04:34:10;99034.06;;;13.39;84.58
59055;BME280;44845;51.444;7.460;2023-05-10T04:36:36;99039.97;;;13.46;84.24
59055;BME280;44845;51.444;7.460;2023-05-10T04:39:02;99037.56;;;13.39;84.52
59055;BME280;44845;51.444;7.460;2023-05-10T04:41:28;99033.09;;;13.42;84.09
59055;BME280;44845;51.444;7.460;2023-05-10T04:43:53;99043.50;;;13.45;84.18
59055;BME280;44845;51.444;7.460;2023-05-10T04:46:19;99041.09;;;13.38;84.02
59055;BME280;44845;51.444;7.460;2023-05-10T04:48:44;99045.63;;;13.33;84.52
59055;BME280;44845;51.444;7.460;2023-05-10T04:51:09;99047.75;;;13.22;84.78
59055;BME280;44845;51.444;7.460;2023-05-10T04:53:35;99049.88;;;13.37;84.55
59055;BME280;44845;51.444;7.460;2023-05-10T04:56:01;99059.03;;;13.25;85.20
59055;BME280;44845;51.444;7.460;2023-05-10T04:58:26;99055.53;;;13.25;85.17
59055;BME280;44845;51.444;7.460;2023-05-10T05:00:51;99059.59;;;13.35;84.36
59055;BME280;44845;51.444;7.460;2023-05-10T05:03:17;99057.78;;;13.37;84.27
59055;BME280;44845;51.444;7.460;2023-05-10T05:05:43;99056.81;;;13.40;84.26
59055;BME280;44845;51.444;7.460;2023-05-10T05:08:08;99058.50;;;13.43;84.41
59055;BME280;44845;51.444;7.460;2023-05-10T05:10:34;99063.97;;;13.36;84.95
59055;BME280;44845;51.444;7.460;2023-05-10T05:13:00;99075.94;;;13.47;84.17
59055;BME280;44845;51.444;7.460;2023-05-10T05:15:25;99074.16;;;13.47;84.04
59055;BME280;44845;51.444;7.460;2023-05-10T05:17:50;99074.06;;;13.50;84.37
59055;BME280;44845;51.444;7.460;2023-05-10T05:20:16;99077.50;;;13.52;84.55
59055;BME280;44845;51.444;7.460;2023-05-10T05:22:42;99070.41;;;13.56;84.36
59055;BME280;44845;51.444;7.460;2023-05-10T05:25:07;99078.38;;;13.53;84.49
59055;BME280;44845;51.444;7.460;2023-05-10T05:27:33;99074.94;;;13.49;84.31
59055;BME280;44845;51.444;7.460;2023-05-10T05:29:58;99073.19;;;13.50;84.43
59055;BME280;44845;51.444;7.460;2023-05-10T05:32:24;99083.84;;;13.47;84.51
59055;BME280;44845;51.444;7.460;2023-05-10T05:34:50;99081.53;;;13.36;85.31
59055;BME280;44845;51.444;7.460;2023-05-10T05:37:18;99096.94;;;13.48;85.22
59055;BME280;44845;51.444;7.460;2023-05-10T05:39:44;99083.72;;;13.50;84.85
59055;BME280;44845;51.444;7.460;2023-05-10T05:42:11;99092.34;;;13.55;84.95
59055;BME280;44845;51.444;7.460;2023-05-10T05:44:36;99085.41;;;13.52;85.09
59055;BME280;44845;51.444;7.460;2023-05-10T05:47:02;99088.03;;;13.52;84.96
59055;BME280;44845;51.444;7.460;2023-05-10T05:49:27;99092.19;;;13.61;85.18
59055;BME280;44845;51.444;7.460;2023-05-10T05:51:53;99089.50;;;13.63;84.96
59055;BME280;44845;51.444;7.460;2023-05-10T05:54:18;99086.19;;;13.55;85.30
59055;BME280;44845;51.444;7.460;2023-05-10T05:56:43;99085.19;;;13.60;84.74
59055;BME280;44845;51.444;7.460;2023-05-10T05:59:09;99087.66;;;13.65;85.21
59055;BME280;44845;51.444;7.460;2023-05-10T06:01:35;99089.19;;;13.72;85.33
59055;BME280;44845;51.444;7.460;2023-05-10T06:04:00;99091.88;;;13.71;85.25
59055;BME280;44845;51.444;7.460;2023-05-10T06:06:26;99100.59;;;13.73;84.90
59055;BME280;44845;51.444;7.460;2023-05-10T06:08:52;99108.28;;;13.79;84.86
59055;BME280;44845;51.444;7.460;2023-05-10T06:11:17;99114.66;;;13.72;85.23
59055;BME280;44845;51.444;7.460;2023-05-10T06:13:42;99119.75;;;13.78;85.13
59055;BME280;44845;51.444;7.460;2023-05-10T06:16:08;99119.59;;;13.83;84.71
59055;BME280;44845;51.444;7.460;2023-05-10T06:18:33;99129.97;;;13.88;84.47
59055;BME280;44845;51.444;7.460;2023-05-10T06:20:58;99125.59;;;13.88;84.91
59055;BME280;44845;51.444;7.460;2023-05-10T06:23:24;99125.59;;;13.88;85.02
59055;BME280;44845;51.444;7.460;2023-05-10T06:25:50;99120.19;;;13.91;85.03
59055;BME280;44845;51.444;7.460;2023-05-10T06:28:16;99121.41;;;14.08;84.83
59055;BME280;44845;51.444;7.460;2023-05-10T06:30:41;99124.06;;;14.08;84.98
59055;BME280;44845;51.444;7.460;2023-05-10T06:33:07;99133.50;;;14.14;85.19
59055;BME280;44845;51.444;7.460;2023-05-10T06:35:32;99124.72;;;14.13;84.87
59055;BME280;44845;51.444;7.460;2023-05-10T06:37:58;99124.94;;;14.07;84.64
59055;BME280;44845;51.444;7.460;2023-05-10T06:40:24;99127.41;;;14.12;84.27
59055;BME280;44845;51.444;7.460;2023-05-10T06:42:49;99139.91;;;14.06;84.50
59055;BME280;44845;51.444;7.460;2023-05-10T06:45:15;99137.22;;;14.08;84.46
59055;BME280;44845;51.444;7.460;2023-05-10T06:47:40;99147.22;;;13.98;84.62
59055;BME280;44845;51.444;7.460;2023-05-10T06:50:09;99143.56;;;14.02;84.32
59055;BME280;44845;51.444;7.460;2023-05-10T06:52:36;99148.94;;;13.99;84.16
59055;BME280;44845;51.444;7.460;2023-05-10T06:55:02;99148.84;;;14.02;84.21
59055;BME280;44845;51.444;7.460;2023-05-10T06:57:28;99144.31;;;14.06;84.81
59055;BME280;44845;51.444;7.460;2023-05-10T06:59:54;99141.31;;;14.17;84.53
59055;BME280;44845;51.444;7.460;2023-05-10T07:02:21;99150.81;;;14.23;84.66
59055;BME280;44845;51.444;7.460;2023-05-10T07:04:47;99151.34;;;14.33;84.77
59055;BME280;44845;51.444;7.460;2023-05-10T07:07:13;99148.47;;;14.39;84.19
59055;BME280;44845;51.444;7.460;2023-05-10T07:09:38;99145.63;;;14.45;84.17
59055;BME280;44845;51.444;7.460;2023-05-10T07:12:04;99148.78;;;14.55;83.99
59055;BME280;44845;51.444;7.460;2023-05-10T07:14:29;99163.91;;;14.75;83.64
59055;BME280;44845;51.444;7.460;2023-05-10T07:16:55;99160.31;;;14.78;83.99
59055;BME280;44845;51.444;7.460;2023-05-10T07:19:20;99160.94;;;14.86;83.87
59055;BME280;44845;51.444;7.460;2023-05-10T07:21:45;99163.03;;;15.01;83.21
59055;BME280;44845;51.444;7.460;2023-05-10T07:24:11;99160.84;;;15.12;82.84
59055;BME280;44845;51.444;7.460;2023-05-10T07:26:36;99162.47;;;15.16;82.74
59055;BME280;44845;51.444;7.460;2023-05-10T07:29:02;99160.28;;;15.28;82.63
59055;BME280;44845;51.444;7.460;2023-05-10T07:31:27;99167.25;;;15.29;82.36
59055;BME280;44845;51.444;7.460;2023-05-10T07:33:52;99163.81;;;15.27;82.53
59055;BME280;44845;51.444;7.460;2023-05-10T07:36:18;99153.03;;;15.33;81.70
59055;BME280;44845;51.444;7.460;2023-05-10T07:38:43;99155.13;;;15.47;82.75
59055;BME280;44845;51.444;7.460;2023-05-10T07:41:11;99156.41;;;15.59;82.57
59055;BME280;44845;51.444;7.460;2023-05-10T07:43:37;99157.09;;;15.64;81.81
59055;BME280;44845;51.444;7.460;2023-05-10T07:46:02;99152.53;;;15.68;81.94
59055;BME280;44845;51.444;7.460;2023-05-10T07:48:27;99151.56;;;15.71;81.97
59055;BME280;44845;51.444;7.460;2023-05-10T07:50:53;99163.25;;;15.65;81.37
59055;BME280;44845;51.444;7.460;2023-05-10T07:53:18;99149.72;;;15.73;81.93
59055;BME280;44845;51.444;7.460;2023-05-10T07:55:44;99157.50;;;15.76;82.04
59055;BME280;44845;51.444;7.460;2023-05-10T07:58:09;99160.16;;;15.76;82.20
59055;BME280;44845;51.444;7.460;2023-05-10T08:00:34;99160.03;;;15.79;81.33
59055;BME280;44845;51.444;7.460;2023-05-10T08:03:00;99163.56;;;15.80;81.96
59055;BME280;44845;51.444;7.460;2023-05-10T08:05:25;99161.03;;;15.76;81.52
59055;BME280;44845;51.444;7.460;2023-05-10T08:07:50;99161.91;;;15.77;81.64
59055;BME280;44845;51.444;7.460;2023-05-10T08:10:16;99166.69;;;15.67;81.52
59055;BME280;44845;51.444;7.460;2023-05-10T08:12:41;99168.53;;;15.65;81.18
59055;BME280;44845;51.444;7.460;2023-05-10T08:15:08;99182.91;;;15.58;80.64
59055;BME280;44845;51.444;7.460;2023-05-10T08:17:34;99174.34;;;15.51;81.09
59055;BME280;44845;51.444;7.460;2023-05-10T08:19:59;99176.19;;;15.49;81.49
59055;BME280;44845;51.444;7.460;2023-05-10T08:22:24;99183.41;;;15.45;82.37
59055;BME280;44845;51.444;7.460;2023-05-10T08:24:50;99182.63;;;15.41;82.31
59055;BME280;44845;51.444;7.460;2023-05-10T08:27:15;99186.06;;;15.43;82.24
59055;BME280;44845;51.444;7.460;2023-05-10T08:29:40;99187.91;;;15.41;82.53
59055;BME280;44845;51.444;7.460;2023-05-10T08:32:06;99193.22;;;15.41;82.54
59055;BME280;44845;51.444;7.460;2023-05-10T08:34:31;99194.69;;;15.49;82.38
59055;BME280;44845;51.444;7.460;2023-05-10T08:36:57;99202.94;;;15.63;81.97
59055;BME280;44845;51.444;7.460;2023-05-10T08:39:22;99197.53;;;15.67;81.50
59055;BME280;44845;51.444;7.460;2023-05-10T08:41:51;99195.56;;;15.72;81.90
59055;BME280;44845;51.444;7.460;2023-05-10T08:44:19;99205.56;;;15.63;82.78
59055;BME280;44845;51.444;7.460;2023-05-10T08:46:46;99202.63;;;15.71;82.15
59055;BME280;44845;51.444;7.460;2023-05-10T08:49:16;99206.25;;;15.69;81.71
59055;BME280;44845;51.444;7.460;2023-05-10T08:51:44;99208.00;;;15.70;81.71
59055;BME280;44845;51.444;7.460;2023-05-10T08:54:12;99212.34;;;15.71;81.91
59055;BME280;44845;51.444;7.460;2023-05-10T08:56:38;99218.56;;;15.70;81.11
59055;BME280;44845;51.444;7.460;2023-05-10T08:59:03;99208.97;;;15.67;81.00
59055;BME280;44845;51.444;7.460;2023-05-10T09:01:31;99222.00;;;15.72;80.66
59055;BME280;44845;51.444;7.460;2023-05-10T09:03:58;99214.97;;;15.71;81.15
59055;BME280;44845;51.444;7.460;2023-05-10T09:06:23;99217.50;;;15.74;81.15
59055;BME280;44845;51.444;7.460;2023-05-10T09:08:49;99215.47;;;15.81;81.11
59055;BME280;44845;51.444;7.460;2023-05-10T09:11:16;99217.94;;;15.85;80.44
59055;BME280;44845;51.444;7.460;2023-05-10T09:13:41;99230.13;;;15.90;80.27
59055;BME280;44845;51.444;7.460;2023-05-10T09:16:07;99224.78;;;15.91;81.29
59055;BME280;44845;51.444;7.460;2023-05-10T09:18:32;99235.41;;;15.90;81.10
59055;BME280;44845;51.444;7.460;2023-05-10T09:20:57;99231.47;;;16.00;80.77
59055;BME280;44845;51.444;7.460;2023-05-10T09:23:23;99236.56;;;16.06;80.30
59055;BME280;44845;51.444;7.460;2023-05-10T09:26:06;99228.44;;;16.11;79.56
59055;BME280;44845;51.444;7.460;2023-05-10T09:28:33;99228.91;;;16.21;79.39
59055;BME280;44845;51.444;7.460;2023-05-10T09:30:58;99219.53;;;16.35;79.41
59055;BME280;44845;51.444;7.460;2023-05-10T09:33:24;99226.09;;;16.47;79.28
59055;BME280;44845;51.444;7.460;2023-05-10T09:35:51;99217.16;;;16.49;78.43
59055;BME280;44845;51.444;7.460;2023-05-10T09:38:17;99217.97;;;16.51;77.47
59055;BME280;44845;51.444;7.460;2023-05-10T09:40:51;99220.25;;;16.59;78.41
59055;BME280;44845;51.444;7.460;2023-05-10T09:43:20;99225.63;;;16.58;77.51
59055;BME280;44845;51.444;7.460;2023-05-10T09:45:47;99230.94;;;16.58;77.78
59055;BME280;44845;51.444;7.460;2023-05-10T09:48:13;99221.59;;;16.70;77.47
59055;BME280;44845;51.444;7.460;2023-05-10T09:50:39;99235.78;;;16.69;77.83
59055;BME280;44845;51.444;7.460;2023-05-10T09:53:05;99237.69;;;16.65;77.47
59055;BME280;44845;51.444;7.460;2023-05-10T09:55:48;99236.16;;;16.80;78.86
59055;BME280;44845;51.444;7.460;2023-05-10T09:58:17;99229.91;;;16.81;77.91
59055;BME280;44845;51.444;7.460;2023-05-10T10:00:44;99236.59;;;16.90;78.49
59055;BME280;44845;51.444;7.460;2023-05-10T10:03:19;99230.53;;;16.88;77.13
59055;BME280;44845;51.444;7.460;2023-05-10T10:05:46;99238.31;;;16.91;76.63
59055;BME280;44845;51.444;7.460;2023-05-10T10:08:13;99229.53;;;16.91;76.10
59055;BME280;44845;51.444;7.460;2023-05-10T10:10:38;99229.16;;;16.98;76.90
59055;BME280;44845;51.444;7.460;2023-05-10T10:13:06;99234.63;;;16.95;76.33
59055;BME280;44845;51.444;7.460;2023-05-10T10:15:32;99236.47;;;16.93;75.92
59055;BME280;44845;51.444;7.460;2023-05-10T10:17:58;99231.03;;;16.96;76.84
59055;BME280;44845;51.444;7.460;2023-05-10T10:20:24;99235.50;;;16.96;76.05
59055;BME280;44845;51.444;7.460;2023-05-10T10:22:50;99237.09;;;16.98;76.16
59055;BME280;44845;51.444;7.460;2023-05-10T10:25:17;99226.94;;;16.89;75.92
59055;BME280;44845;51.444;7.460;2023-05-10T10:28:09;99234.75;;;16.92;76.95
59055;BME280;44845;51.444;7.460;2023-05-10T10:30:49;99247.06;;;16.93;76.04
59055;BME280;44845;51.444;7.460;2023-05-10T10:36:02;99241.69;;;16.95;74.97
59055;BME280;44845;51.444;7.460;2023-05-10T10:41:22;99241.63;;;16.96;73.69
59055;BME280;44845;51.444;7.460;2023-05-10T10:49:24;99241.81;;;17.13;72.73
59055;BME280;44845;51.444;7.460;2023-05-10T11:02:52;99254.59;;;17.24;74.58
59055;BME280;44845;51.444;7.460;2023-05-10T11:05:41;99260.06;;;17.20;73.29
59055;BME280;44845;51.444;7.460;2023-05-10T11:10:37;99267.06;;;17.21;73.47
59055;BME280;44845;51.444;7.460;2023-05-10T11:15:32;99274.34;;;16.95;72.80
59055;BME280;44845;51.444;7.460;2023-05-10T11:17:58;99279.09;;;16.87;73.00
59055;BME280;44845;51.444;7.460;2023-05-10T11:20:27;99269.72;;;16.80;72.03
59055;BME280;44845;51.444;7.460;2023-05-10T11:23:10;99272.34;;;16.80;72.22
59055;BME280;44845;51.444;7.460;2023-05-10T11:25:41;99279.22;;;16.84;73.84
59055;BME280;44845;51.444;7.460;2023-05-10T11:28:07;99286.38;;;16.82;73.34
59055;BME280;44845;51.444;7.460;2023-05-10T11:30:32;99282.00;;;16.60;71.93
59055;BME280;44845;51.444;7.460;2023-05-10T11:32:57;99280.03;;;16.65;72.52
59055;BME280;44845;51.444;7.460;2023-05-10T11:35:23;99282.94;;;16.59;72.58
59055;BME280;44845;51.444;7.460;2023-05-10T11:37:48;99283.25;;;16.51;70.65
59055;BME280;44845;51.444;7.460;2023-05-10T11:40:13;99290.94;;;16.57;71.53
59055;BME280;44845;51.444;7.460;2023-05-10T11:42:39;99280.09;;;16.63;70.61
59055;BME280;44845;51.444;7.460;2023-05-10T11:45:05;99286.00;;;16.70;71.34
59055;BME280;44845;51.444;7.460;2023-05-10T11:47:31;99293.03;;;16.71;71.38
59055;BME280;44845;51.444;7.460;2023-05-10T11:49:57;99296.09;;;16.81;72.17
59055;BME280;44845;51.444;7.460;2023-05-10T11:52:23;99296.09;;;16.81;71.93
59055;BME280;44845;51.444;7.460;2023-05-10T11:54:52;99297.13;;;16.79;70.21
59055;BME280;44845;51.444;7.460;2023-05-10T11:57:19;99297.50;;;16.90;71.15
59055;BME280;44845;51.444;7.460;2023-05-10T11:59:46;99296.72;;;16.88;71.43
59055;BME280;44845;51.444;7.460;2023-05-10T12:02:12;99296.41;;;16.96;71.05
59055;BME280;44845;51.444;7.460;2023-05-10T12:04:37;99308.19;;;16.88;69.76
59055;BME280;44845;51.444;7.460;2023-05-10T12:07:03;99305.47;;;16.90;70.92
59055;BME280;44845;51.444;7.460;2023-05-10T12:09:28;99312.25;;;16.75;71.03
59055;BME280;44845;51.444;7.460;2023-05-10T12:11:55;99311.81;;;16.86;69.99
59055;BME280;44845;51.444;7.460;2023-05-10T12:14:22;99316.63;;;16.97;71.43
59055;BME280;44845;51.444;7.460;2023-05-10T12:16:47;99312.69;;;17.07;69.11
59055;BME280;44845;51.444;7.460;2023-05-10T12:19:18;99317.97;;;17.07;69.22
59055;BME280;44845;51.444;7.460;2023-05-10T12:21:44;99320.66;;;17.06;67.85
59055;BME280;44845;51.444;7.460;2023-05-10T12:24:09;99326.47;;;17.16;69.20
59055;BME280;44845;51.444;7.460;2023-05-10T12:26:35;99324.53;;;17.19;69.34
59055;BME280;44845;51.444;7.460;2023-05-10T12:29:14;99329.06;;;17.17;68.89
59055;BME280;44845;51.444;7.460;2023-05-10T12:31:59;99322.28;;;17.10;69.03
59055;BME280;44845;51.444;7.460;2023-05-10T12:36:58;99324.47;;;17.21;69.13
59055;BME280;44845;51.444;7.460;2023-05-10T12:39:24;99327.66;;;17.29;68.55
59055;BME280;44845;51.444;7.460;2023-05-10T12:41:50;99325.59;;;17.36;69.26
59055;BME280;44845;51.444;7.460;2023-05-10T12:44:17;99332.81;;;17.32;69.27
59055;BME280;44845;51.444;7.460;2023-05-10T12:46:42;99325.72;;;17.12;68.57
59055;BME280;44845;51.444;7.460;2023-05-10T12:49:08;99331.13;;;17.09;68.53
59055;BME280;44845;51.444;7.460;2023-05-10T12:51:33;99333.31;;;16.99;68.42
59055;BME280;44845;51.444;7.460;2023-05-10T12:53:58;99331.06;;;16.89;68.30
59055;BME280;44845;51.444;7.460;2023-05-10T12:56:24;99333.66;;;16.91;68.62
59055;BME280;44845;51.444;7.460;2023-05-10T12:58:49;99328.09;;;16.97;69.47
59055;BME280;44845;51.444;7.460;2023-05-10T13:01:14;99334.72;;;17.08;68.90
59055;BME280;44845;51.444;7.460;2023-05-10T13:03:40;99334.44;;;17.14;66.73
59055;BME280;44845;51.444;7.460;2023-05-10T13:06:05;99337.19;;;17.13;67.17
59055;BME280;44845;51.444;7.460;2023-05-10T13:08:31;99334.06;;;17.24;67.05
59055;BME280;44845;51.444;7.460;2023-05-10T13:10:59;99336.72;;;17.24;68.44
59055;BME280;44845;51.444;7.460;2023-05-10T13:13:25;99339.25;;;17.27;67.71
59055;BME280;44845;51.444;7.460;2023-05-10T13:15:51;99346.28;;;17.28;65.85
59055;BME280;44845;51.444;7.460;2023-05-10T13:18:16;99337.91;;;17.37;67.83
59055;BME280;44845;51.444;7.460;2023-05-10T13:20:42;99333.28;;;17.42;67.42
59055;BME280;44845;51.444;7.460;2023-05-10T13:23:09;99328.97;;;17.40;66.96
59055;BME280;44845;51.444;7.460;2023-05-10T13:25:34;99325.59;;;17.36;67.98
59055;BME280;44845;51.444;7.460;2023-05-10T13:28:00;99336.31;;;17.33;66.68
59055;BME280;44845;51.444;7.460;2023-05-10T13:30:25;99329.44;;;17.29;64.58
59055;BME280;44845;51.444;7.460;2023-05-10T13:32:51;99334.06;;;17.24;65.94
59055;BME280;44845;51.444;7.460;2023-05-10T13:35:16;99332.81;;;17.32;67.06
59055;BME280;44845;51.444;7.460;2023-05-10T13:37:41;99331.50;;;17.22;66.97
59055;BME280;44845;51.444;7.460;2023-05-10T13:40:07;99334.72;;;17.29;68.52
59055;BME280;44845;51.444;7.460;2023-05-10T13:42:33;99338.50;;;17.23;68.57